Time;durP1;ratioP1;P1;durP2;ratioP2;P2;SDS_P1;SDS_P2;PMS_P1;PMS_P2;Temp;Humidity;BMP_temperature;BMP_pressure;BME280_temperature;BME280_humidity;BME280_pressure;Samples;Min_cycle;Max_cycle;Signal;HPM_P1;HPM_P2
2022/08/15 00:00:14;;;;;;;8.35;6.10;;;23.00;92.30;;;;;;5111553;28;20023;-83
2022/08/15 00:02:43;;;;;;;7.75;5.82;;;23.00;92.30;;;;;;5111193;28;20069;-83
2022/08/15 00:05:10;;;;;;;12.10;7.13;;;22.90;92.40;;;;;;5109708;28;20032;-84
2022/08/15 00:07:36;;;;;;;5.93;5.38;;;22.90;92.40;;;;;;5110829;28;20032;-84
2022/08/15 00:10:03;;;;;;;8.15;6.25;;;22.90;92.60;;;;;;5109022;28;20039;-82
2022/08/15 00:12:29;;;;;;;7.43;6.72;;;22.90;92.70;;;;;;5126799;27;20031;-84
2022/08/15 00:14:55;;;;;;;6.88;6.18;;;22.80;93.10;;;;;;5110161;28;20031;-84
2022/08/15 00:17:22;;;;;;;11.93;6.90;;;22.70;92.90;;;;;;5111083;28;20870;-83
2022/08/15 00:19:48;;;;;;;7.32;6.50;;;22.70;93.10;;;;;;5112583;27;20020;-83
2022/08/15 00:22:18;;;;;;;7.65;6.68;;;22.70;93.20;;;;;;5111087;28;20039;-83
2022/08/15 00:24:46;;;;;;;7.65;6.43;;;22.60;93.30;;;;;;5114354;28;20020;-83
2022/08/15 00:27:12;;;;;;;7.78;6.63;;;22.60;93.70;;;;;;5110495;28;20149;-83
2022/08/15 00:29:38;;;;;;;8.23;7.10;;;22.60;93.50;;;;;;5110565;28;20047;-83
2022/08/15 00:32:07;;;;;;;7.88;6.65;;;22.50;93.70;;;;;;5109719;28;20031;-84
2022/08/15 00:34:32;;;;;;;7.07;6.38;;;22.50;93.80;;;;;;5111711;28;20031;-85
2022/08/15 00:37:00;;;;;;;7.60;6.65;;;22.50;93.90;;;;;;5112525;28;20028;-84
2022/08/15 00:39:27;;;;;;;8.48;6.40;;;22.40;93.90;;;;;;5117430;28;20019;-84
2022/08/15 00:41:56;;;;;;;7.32;6.63;;;22.40;94.00;;;;;;5110949;28;20107;-84
2022/08/15 00:44:33;;;;;;;7.07;6.38;;;22.40;94.00;;;;;;5109974;28;20127;-84
2022/08/15 00:47:02;;;;;;;8.77;6.97;;;22.40;94.10;;;;;;5109393;28;20081;-83
2022/08/15 00:49:30;;;;;;;8.20;7.15;;;22.40;94.20;;;;;;5112240;28;20372;-86
2022/08/15 00:52:07;;;;;;;8.88;6.75;;;22.30;94.20;;;;;;5109756;28;20162;-84
2022/08/15 00:54:41;;;;;;;9.98;7.03;;;22.30;94.30;;;;;;5112499;28;20044;-83
2022/08/15 00:57:15;;;;;;;9.48;7.07;;;22.30;94.30;;;;;;5116130;28;20114;-83
2022/08/15 00:59:46;;;;;;;10.00;7.38;;;22.30;94.40;;;;;;5115929;28;20024;-83
2022/08/15 01:02:16;;;;;;;10.10;6.93;;;22.20;94.50;;;;;;5109336;28;20038;-85
2022/08/15 01:04:43;;;;;;;9.20;7.55;;;22.20;94.50;;;;;;5109521;28;20032;-84
2022/08/15 01:07:09;;;;;;;8.48;7.55;;;22.20;94.50;;;;;;5108939;28;20031;-84
2022/08/15 01:09:36;;;;;;;8.10;7.30;;;22.10;94.60;;;;;;5109231;28;20024;-84
2022/08/15 01:12:08;;;;;;;9.63;7.63;;;22.10;94.70;;;;;;5109076;28;20030;-85
2022/08/15 01:14:34;;;;;;;8.20;7.32;;;22.10;94.80;;;;;;5109437;28;20482;-83
2022/08/15 01:17:01;;;;;;;7.35;6.60;;;22.10;94.90;;;;;;5110528;28;20036;-84
2022/08/15 01:19:33;;;;;;;8.10;7.10;;;22.10;94.90;;;;;;5110990;28;20034;-85
2022/08/15 01:22:36;;;;;;;9.80;8.15;;;22.10;95.10;;;;;;5110630;28;20035;-84
2022/08/15 01:25:10;;;;;;;9.43;7.33;;;22.00;95.00;;;;;;5113073;28;20105;-83
2022/08/15 01:27:41;;;;;;;8.32;7.53;;;22.00;95.00;;;;;;5114210;28;20827;-82
2022/08/15 01:30:10;;;;;;;9.50;6.93;;;22.00;95.20;;;;;;5114713;28;20028;-85
2022/08/15 01:32:36;;;;;;;12.02;7.22;;;22.00;95.30;;;;;;5114206;28;20432;-84
2022/08/15 01:35:03;;;;;;;14.70;7.80;;;21.90;95.30;;;;;;5112606;28;20141;-83
2022/08/15 01:37:30;;;;;;;8.02;6.88;;;21.90;95.40;;;;;;5117086;28;20053;-84
2022/08/15 01:40:09;;;;;;;7.65;6.72;;;21.90;95.40;;;;;;5119142;28;20419;-83
2022/08/15 01:42:47;;;;;;;7.88;7.13;;;21.90;95.50;;;;;;5112827;28;20481;-84
2022/08/15 01:45:18;;;;;;;9.05;7.13;;;21.90;95.50;;;;;;5112773;28;20424;-83
2022/08/15 01:48:06;;;;;;;8.85;7.13;;;21.80;95.50;;;;;;5112277;28;20051;-83
2022/08/15 01:50:56;;;;;;;7.60;6.90;;;21.80;95.60;;;;;;5114223;28;20093;-84
2022/08/15 01:53:46;;;;;;;8.38;7.45;;;21.80;95.70;;;;;;5114308;28;20043;-84
2022/08/15 01:56:18;;;;;;;9.02;7.53;;;21.70;95.70;;;;;;5112127;28;20031;-83
2022/08/15 01:58:45;;;;;;;9.25;7.65;;;21.70;95.90;;;;;;5113960;28;20016;-83
2022/08/15 02:01:14;;;;;;;8.88;7.88;;;21.70;96.00;;;;;;5112427;28;20359;-84
2022/08/15 02:03:42;;;;;;;7.55;6.75;;;21.70;96.00;;;;;;5113487;28;20130;-83
2022/08/15 02:06:12;;;;;;;11.18;7.18;;;21.60;96.00;;;;;;5113414;28;20059;-83
2022/08/15 02:08:40;;;;;;;8.25;7.35;;;21.60;96.10;;;;;;5112422;28;20028;-84
2022/08/15 02:11:09;;;;;;;11.02;7.78;;;21.60;96.10;;;;;;5113692;28;20118;-84
2022/08/15 02:13:35;;;;;;;8.45;7.05;;;21.60;96.20;;;;;;5113486;27;20031;-83
2022/08/15 02:16:02;;;;;;;8.00;7.20;;;21.60;96.20;;;;;;5112714;28;20732;-83
2022/08/15 02:18:27;;;;;;;10.88;7.78;;;21.60;96.20;;;;;;5113473;28;20067;-84
2022/08/15 02:20:54;;;;;;;8.10;7.30;;;21.50;96.30;;;;;;5114085;28;20059;-83
2022/08/15 02:23:21;;;;;;;9.27;6.95;;;21.50;96.30;;;;;;5116468;28;20111;-83
2022/08/15 02:25:47;;;;;;;7.90;7.10;;;21.50;96.30;;;;;;5112201;28;20482;-85
2022/08/15 02:28:13;;;;;;;7.45;6.75;;;21.50;96.40;;;;;;5121472;28;20028;-82
2022/08/15 02:30:39;;;;;;;10.75;7.10;;;21.50;96.40;;;;;;5113654;28;20027;-83
2022/08/15 02:33:05;;;;;;;8.60;7.25;;;21.50;96.50;;;;;;5110267;28;20065;-84
2022/08/15 02:35:31;;;;;;;8.35;7.25;;;21.50;96.50;;;;;;5112671;28;20035;-83
2022/08/15 02:38:01;;;;;;;7.60;6.90;;;21.50;96.50;;;;;;5113140;28;20028;-84
2022/08/15 02:40:28;;;;;;;8.18;7.30;;;21.50;96.60;;;;;;5111888;28;20058;-84
2022/08/15 02:42:54;;;;;;;8.10;6.55;;;21.40;96.60;;;;;;5112793;28;20065;-84
2022/08/15 02:45:19;;;;;;;8.73;7.43;;;21.40;96.60;;;;;;5112766;28;20067;-83
2022/08/15 02:47:45;;;;;;;10.57;6.82;;;21.50;96.60;;;;;;5112942;28;20043;-83
2022/08/15 02:50:14;;;;;;;11.60;7.68;;;21.40;96.70;;;;;;5111919;28;20030;-83
2022/08/15 02:52:42;;;;;;;7.72;6.85;;;21.40;96.60;;;;;;5112569;28;20032;-84
2022/08/15 02:55:10;;;;;;;9.90;7.00;;;21.40;96.60;;;;;;5111928;28;20035;-83
2022/08/15 02:57:36;;;;;;;9.43;7.20;;;21.40;96.60;;;;;;5111215;28;20059;-85
2022/08/15 03:00:06;;;;;;;8.25;7.35;;;21.50;96.70;;;;;;5112563;28;20066;-84
2022/08/15 03:02:53;;;;;;;8.30;6.63;;;21.50;96.70;;;;;;5112354;28;20443;-83
2022/08/15 03:05:19;;;;;;;7.75;6.95;;;21.50;96.60;;;;;;5112454;28;20096;-82
2022/08/15 03:07:45;;;;;;;10.55;7.10;;;21.40;96.70;;;;;;5111098;28;20035;-83
2022/08/15 03:10:10;;;;;;;7.80;6.93;;;21.40;96.70;;;;;;5112983;28;20457;-84
2022/08/15 03:12:47;;;;;;;8.45;6.38;;;21.50;96.60;;;;;;5111108;28;20194;-83
2022/08/15 03:15:13;;;;;;;7.78;6.60;;;21.50;96.50;;;;;;5111237;28;20028;-82
2022/08/15 03:17:39;;;;;;;9.07;7.38;;;21.50;96.70;;;;;;5110756;28;20092;-83
2022/08/15 03:20:05;;;;;;;7.93;6.72;;;21.50;96.80;;;;;;5112265;28;20397;-83
2022/08/15 03:22:46;;;;;;;7.70;6.88;;;21.40;96.80;;;;;;5111127;28;20039;-83
2022/08/15 03:25:12;;;;;;;8.63;7.18;;;21.40;96.80;;;;;;5111994;28;20039;-82
2022/08/15 03:27:40;;;;;;;8.52;7.63;;;21.40;96.80;;;;;;5111881;28;20031;-83
2022/08/15 03:30:09;;;;;;;12.25;7.93;;;21.40;96.80;;;;;;5111444;28;20038;-84
2022/08/15 03:32:46;;;;;;;9.63;7.05;;;21.40;96.90;;;;;;5110427;28;20023;-84
2022/08/15 03:35:12;;;;;;;11.48;7.68;;;21.40;96.90;;;;;;5111984;28;20035;-84
2022/08/15 03:37:38;;;;;;;7.65;6.85;;;21.40;96.90;;;;;;5109912;28;20072;-82
2022/08/15 03:40:05;;;;;;;10.57;7.65;;;21.50;97.00;;;;;;5112317;28;20419;-83
2022/08/15 03:42:32;;;;;;;10.48;7.88;;;21.40;96.90;;;;;;5109957;28;20028;-83
2022/08/15 03:44:58;;;;;;;8.77;7.18;;;21.50;97.10;;;;;;5111698;28;20019;-82
2022/08/15 03:47:23;;;;;;;9.70;7.63;;;21.50;97.10;;;;;;5111201;28;20512;-82
2022/08/15 03:49:49;;;;;;;9.35;7.85;;;21.40;97.00;;;;;;5110565;28;20060;-82
2022/08/15 03:52:15;;;;;;;8.10;7.30;;;21.50;97.10;;;;;;5111405;28;20393;-83
2022/08/15 03:54:41;;;;;;;7.80;7.00;;;21.50;97.00;;;;;;5112463;28;20039;-82
2022/08/15 03:57:07;;;;;;;9.70;7.50;;;21.50;97.10;;;;;;5109584;28;20034;-83
2022/08/15 03:59:32;;;;;;;8.32;7.40;;;21.50;97.10;;;;;;5110183;28;20028;-82
2022/08/15 04:01:58;;;;;;;8.15;7.20;;;21.50;97.20;;;;;;5111278;28;20062;-82
2022/08/15 04:04:23;;;;;;;9.48;7.82;;;21.50;97.20;;;;;;5111482;28;20114;-83
2022/08/15 04:06:49;;;;;;;9.90;7.88;;;21.50;97.10;;;;;;5111695;28;20063;-83
2022/08/15 04:09:14;;;;;;;7.75;6.95;;;21.50;97.10;;;;;;5112444;28;20036;-83
2022/08/15 04:11:40;;;;;;;9.25;7.95;;;21.60;97.10;;;;;;5115455;28;20036;-83
2022/08/15 04:14:06;;;;;;;7.68;6.82;;;21.60;97.10;;;;;;5115251;28;20562;-83
2022/08/15 04:16:32;;;;;;;9.95;7.13;;;21.60;96.90;;;;;;5109489;28;20110;-82
2022/08/15 04:18:58;;;;;;;8.05;7.10;;;21.70;96.90;;;;;;5111102;28;20111;-82
2022/08/15 04:21:23;;;;;;;10.27;7.32;;;21.70;96.90;;;;;;5110557;28;20508;-82
2022/08/15 04:23:49;;;;;;;7.40;6.65;;;21.70;96.80;;;;;;5111229;28;20032;-83
2022/08/15 04:26:16;;;;;;;12.48;8.05;;;21.70;96.70;;;;;;5110413;28;20023;-84
2022/08/15 04:28:43;;;;;;;10.25;6.90;;;21.80;96.60;;;;;;5110932;28;20027;-83
2022/08/15 04:31:14;;;;;;;8.02;7.03;;;21.80;96.60;;;;;;5109643;28;20060;-83
2022/08/15 04:33:41;;;;;;;10.50;6.95;;;21.80;96.60;;;;;;5109465;28;20115;-84
2022/08/15 04:36:10;;;;;;;9.32;7.97;;;21.80;96.60;;;;;;5108716;28;20038;-84
2022/08/15 04:38:40;;;;;;;8.80;7.35;;;21.90;96.50;;;;;;5109834;28;20042;-83
2022/08/15 04:41:07;;;;;;;8.40;7.20;;;22.00;96.60;;;;;;5110442;28;20047;-85
2022/08/15 04:43:34;;;;;;;9.55;7.32;;;22.00;96.30;;;;;;5109561;28;20431;-84
2022/08/15 04:46:00;;;;;;;9.68;7.07;;;22.10;96.30;;;;;;5108737;28;20024;-83
2022/08/15 04:48:26;;;;;;;8.98;7.57;;;22.10;96.20;;;;;;5109838;28;20040;-83
2022/08/15 04:50:54;;;;;;;8.63;6.75;;;22.20;96.10;;;;;;5110500;28;20424;-83
2022/08/15 04:53:24;;;;;;;10.82;7.60;;;22.20;96.00;;;;;;5110971;28;20392;-83
2022/08/15 04:55:51;;;;;;;11.15;7.72;;;22.30;95.90;;;;;;5108816;28;20038;-85
2022/08/15 04:58:17;;;;;;;8.02;7.22;;;22.40;95.90;;;;;;5115597;28;20035;-83
2022/08/15 05:00:52;;;;;;;8.68;7.50;;;22.40;96.00;;;;;;5114871;28;20019;-83
2022/08/15 05:03:19;;;;;;;9.48;7.13;;;22.40;95.80;;;;;;5114020;28;20019;-83
2022/08/15 05:05:49;;;;;;;7.60;6.80;;;22.40;95.80;;;;;;5114326;27;20026;-83
2022/08/15 05:08:15;;;;;;;9.07;6.85;;;22.50;95.80;;;;;;5115416;28;20020;-83
2022/08/15 05:10:42;;;;;;;7.68;6.53;;;22.50;95.70;;;;;;5114905;28;20818;-84
2022/08/15 05:13:11;;;;;;;11.38;7.65;;;22.50;95.70;;;;;;5113752;28;20035;-83
2022/08/15 05:15:38;;;;;;;7.72;6.93;;;22.60;95.70;;;;;;5114412;28;20023;-82
2022/08/15 05:18:04;;;;;;;11.63;7.03;;;22.60;95.70;;;;;;5113202;28;20114;-83
2022/08/15 05:20:29;;;;;;;7.55;6.25;;;22.70;95.60;;;;;;5114815;28;20106;-81
2022/08/15 05:22:57;;;;;;;7.50;6.32;;;22.80;95.50;;;;;;5114204;28;20055;-83
2022/08/15 05:25:23;;;;;;;9.23;6.90;;;22.80;95.40;;;;;;5112914;28;20131;-84
2022/08/15 05:27:48;;;;;;;9.60;6.63;;;22.90;95.40;;;;;;5112607;28;20119;-84
2022/08/15 05:30:15;;;;;;;10.85;6.65;;;23.00;95.40;;;;;;5114449;28;20102;-83
2022/08/15 05:32:40;;;;;;;10.00;6.30;;;23.10;95.30;;;;;;5113572;28;20027;-83
2022/08/15 05:35:07;;;;;;;10.15;6.68;;;23.10;95.00;;;;;;5114466;28;20550;-83
2022/08/15 05:37:32;;;;;;;7.72;6.32;;;23.20;95.00;;;;;;5113605;28;20049;-84
2022/08/15 05:39:59;;;;;;;7.97;7.07;;;23.20;95.10;;;;;;5114608;28;20377;-83
2022/08/15 05:42:35;;;;;;;9.30;6.43;;;23.30;94.90;;;;;;5114283;28;20119;-84
2022/08/15 05:45:22;;;;;;;17.35;6.68;;;23.40;94.70;;;;;;5113083;28;20034;-83
2022/08/15 05:48:14;;;;;;;14.18;7.32;;;23.50;94.50;;;;;;5114045;28;20027;-83
2022/08/15 05:51:00;;;;;;;8.73;7.30;;;23.60;94.60;;;;;;5113460;28;20027;-85
2022/08/15 05:53:41;;;;;;;9.88;7.05;;;23.70;94.40;;;;;;5113426;28;20023;-83
2022/08/15 05:56:38;;;;;;;9.13;6.70;;;23.80;94.60;;;;;;5112222;28;20053;-84
2022/08/15 05:59:14;;;;;;;9.07;6.68;;;23.90;94.10;;;;;;5113794;28;20434;-84
2022/08/15 06:01:44;;;;;;;9.32;6.68;;;24.00;94.30;;;;;;5114180;28;20548;-84
2022/08/15 06:04:38;;;;;;;10.65;6.93;;;24.10;94.20;;;;;;5113929;28;20055;-83
2022/08/15 06:07:09;;;;;;;7.80;6.20;;;24.20;93.90;;;;;;5113451;28;20030;-83
2022/08/15 06:09:41;;;;;;;7.63;5.67;;;24.20;93.60;;;;;;5114011;28;20027;-83
2022/08/15 06:12:30;;;;;;;8.23;6.10;;;24.30;93.30;;;;;;5113615;28;20035;-84
2022/08/15 06:15:02;;;;;;;7.68;6.25;;;24.30;93.40;;;;;;5113751;28;20028;-83
2022/08/15 06:17:41;;;;;;;7.57;6.18;;;24.40;93.50;;;;;;5113545;28;20473;-85
2022/08/15 06:20:09;;;;;;;8.52;5.65;;;24.50;93.70;;;;;;5113718;28;20031;-83
2022/08/15 06:23:12;;;;;;;8.07;5.68;;;24.60;93.20;;;;;;5112024;28;20084;-82
2022/08/15 06:25:45;;;;;;;8.15;6.50;;;24.70;92.70;;;;;;5113064;28;20127;-84
2022/08/15 06:28:44;;;;;;;7.03;5.35;;;24.80;92.80;;;;;;5114282;28;20047;-83
2022/08/15 06:31:31;;;;;;;8.95;6.38;;;24.90;92.80;;;;;;5113192;28;20022;-84
2022/08/15 06:34:32;;;;;;;10.40;6.45;;;25.00;92.90;;;;;;5112477;28;20023;-83
2022/08/15 06:37:13;;;;;;;7.60;5.45;;;25.10;92.60;;;;;;5111629;28;20024;-83
2022/08/15 06:39:57;;;;;;;9.52;5.93;;;25.30;92.10;;;;;;5111960;28;20028;-84
2022/08/15 06:42:32;;;;;;;6.10;5.50;;;25.40;92.00;;;;;;5113074;28;20039;-83
2022/08/15 06:45:00;;;;;;;8.18;5.85;;;25.50;91.60;;;;;;5113374;28;20032;-84
2022/08/15 06:47:29;;;;;;;7.30;5.55;;;25.60;91.30;;;;;;5112725;28;20015;-83
2022/08/15 06:50:01;;;;;;;6.50;5.57;;;25.60;91.20;;;;;;5113680;28;20088;-83
2022/08/15 06:52:29;;;;;;;8.50;5.55;;;25.70;91.10;;;;;;5112207;28;20397;-84
2022/08/15 06:54:55;;;;;;;10.75;6.18;;;25.70;91.10;;;;;;5114051;28;20028;-83
2022/08/15 06:57:39;;;;;;;6.60;5.82;;;25.90;91.00;;;;;;5112824;28;20114;-84
2022/08/15 07:00:12;;;;;;;8.70;5.90;;;26.00;91.40;;;;;;5113177;27;20020;-84
2022/08/15 07:02:58;;;;;;;10.10;5.25;;;26.10;91.80;;;;;;5112660;27;20031;-86
2022/08/15 07:05:40;;;;;;;8.77;5.95;;;26.30;91.80;;;;;;5113014;28;20035;-84
2022/08/15 07:08:24;;;;;;;8.25;4.72;;;26.40;91.50;;;;;;5111890;28;20027;-84
2022/08/15 07:11:07;;;;;;;9.65;5.75;;;26.60;90.90;;;;;;5112517;27;20054;-84
2022/08/15 07:13:51;;;;;;;15.13;6.82;;;26.70;90.80;;;;;;5111638;28;20019;-84
2022/08/15 07:16:27;;;;;;;9.73;5.22;;;26.80;90.20;;;;;;5112680;28;20118;-83
2022/08/15 07:18:56;;;;;;;9.82;4.97;;;26.90;90.40;;;;;;5112379;28;20032;-84
2022/08/15 07:21:22;;;;;;;9.05;5.55;;;27.00;90.30;;;;;;5111932;28;20063;-84
2022/08/15 07:24:08;;;;;;;6.23;5.63;;;27.10;89.20;;;;;;5113748;28;20464;-83
2022/08/15 07:26:57;;;;;;;8.07;5.03;;;27.20;89.10;;;;;;5121016;28;20388;-81
2022/08/15 07:29:29;;;;;;;10.98;4.90;;;27.20;90.00;;;;;;5117454;28;20100;-83
2022/08/15 07:32:20;;;;;;;5.93;4.22;;;27.20;88.80;;;;;;5111792;28;20028;-85
2022/08/15 07:35:14;;;;;;;7.43;5.18;;;27.20;89.20;;;;;;5112300;28;20043;-84
2022/08/15 07:37:58;;;;;;;6.10;5.03;;;27.30;88.10;;;;;;5080484;28;20036;-84
2022/08/15 07:40:26;;;;;;;5.68;4.88;;;27.40;88.30;;;;;;5113673;28;20020;-84
2022/08/15 07:42:52;;;;;;;8.38;5.07;;;27.40;88.30;;;;;;5119555;28;20647;-85
2022/08/15 07:45:28;;;;;;;7.75;4.65;;;27.40;89.10;;;;;;5121507;28;20066;-85
2022/08/15 07:48:02;;;;;;;6.25;4.75;;;27.50;88.00;;;;;;5121247;28;20024;-85
2022/08/15 07:50:34;;;;;;;11.27;5.03;;;27.50;87.80;;;;;;5120618;28;20568;-85
2022/08/15 07:53:23;;;;;;;6.90;4.05;;;27.50;87.70;;;;;;5117106;28;20035;-84
2022/08/15 07:56:12;;;;;;;11.63;4.50;;;27.60;86.30;;;;;;5118307;28;20069;-84
2022/08/15 07:58:39;;;;;;;7.03;4.60;;;27.70;86.10;;;;;;5119405;28;20031;-85
2022/08/15 08:01:10;;;;;;;7.30;4.68;;;27.80;86.70;;;;;;5118409;28;20028;-85
2022/08/15 08:03:39;;;;;;;5.75;4.50;;;27.90;87.40;;;;;;5120379;28;20028;-86
2022/08/15 08:06:31;;;;;;;6.28;4.45;;;28.00;86.00;;;;;;5116947;27;20023;-87
2022/08/15 08:09:24;;;;;;;4.75;3.97;;;28.20;86.00;;;;;;5110492;28;20060;-84
2022/08/15 08:11:54;;;;;;;;;;;28.40;85.50;;;;;;5120139;28;20032;-84
2022/08/15 08:14:54;;;;;;;9.38;4.60;;;28.50;84.10;;;;;;5118001;28;19908;-85
2022/08/15 08:17:33;;;;;;;7.03;4.85;;;28.60;85.50;;;;;;5113638;27;20084;-84
2022/08/15 08:20:23;;;;;;;9.48;4.13;;;28.70;84.30;;;;;;5116038;27;20023;-86
2022/08/15 08:23:01;;;;;;;10.90;4.10;;;28.90;83.60;;;;;;5122765;27;20160;-86
2022/08/15 08:25:38;;;;;;;6.55;4.55;;;29.00;81.60;;;;;;5114525;27;20027;-85
2022/08/15 08:28:21;;;;;;;4.40;3.95;;;29.10;83.30;;;;;;5114894;27;20069;-83
2022/08/15 08:30:54;;;;;;;6.97;4.32;;;29.30;81.60;;;;;;5113958;28;20488;-84
2022/08/15 08:34:10;;;;;;;13.23;4.55;;;29.40;80.80;;;;;;5109171;28;20024;-84
2022/08/15 08:36:55;;;;;;;4.85;3.95;;;29.50;79.70;;;;;;5103218;28;20027;-83
2022/08/15 08:39:32;;;;;;;9.48;4.40;;;29.60;79.70;;;;;;5118967;28;20027;-84
2022/08/15 08:42:26;;;;;;;9.57;4.55;;;29.70;80.40;;;;;;5119651;28;20082;-84
2022/08/15 08:45:06;;;;;;;6.75;4.32;;;29.80;78.10;;;;;;5095809;28;20524;-84
2022/08/15 08:47:50;;;;;;;8.18;4.72;;;29.90;78.90;;;;;;5117532;28;20070;-84
2022/08/15 08:50:48;;;;;;;5.75;4.00;;;30.10;79.20;;;;;;5120230;28;20432;-83
2022/08/15 08:53:35;;;;;;;6.88;4.20;;;30.10;79.20;;;;;;5111361;28;20036;-84
2022/08/15 08:56:13;;;;;;;4.97;3.95;;;30.20;78.50;;;;;;5118655;28;20028;-87
2022/08/15 08:58:50;;;;;;;9.80;4.28;;;30.30;76.80;;;;;;5119337;28;20072;-85
2022/08/15 09:01:21;;;;;;;5.80;3.58;;;30.40;78.00;;;;;;5117282;28;20062;-84
2022/08/15 09:03:52;;;;;;;5.03;3.95;;;30.50;76.60;;;;;;5119146;28;20020;-84
2022/08/15 09:06:23;;;;;;;6.13;4.10;;;30.70;75.80;;;;;;5118125;28;20803;-84
2022/08/15 09:09:11;;;;;;;4.65;4.18;;;30.90;76.00;;;;;;5116461;28;20032;-84
2022/08/15 09:11:44;;;;;;;5.93;4.30;;;30.90;75.70;;;;;;5115541;28;20079;-85
2022/08/15 09:14:34;;;;;;;8.02;5.05;;;31.10;73.50;;;;;;5113298;28;20016;-86
2022/08/15 09:17:06;;;;;;;6.53;4.13;;;31.10;73.50;;;;;;5109866;28;20107;-87
2022/08/15 09:19:45;;;;;;;4.95;4.40;;;31.10;72.20;;;;;;5113658;28;20019;-83
2022/08/15 09:22:11;;;;;;;5.55;3.95;;;31.20;72.20;;;;;;5112801;28;20081;-84
2022/08/15 09:24:36;;;;;;;7.05;4.20;;;31.30;71.70;;;;;;5113066;28;20032;-84
2022/08/15 09:27:14;;;;;;;4.82;4.18;;;31.40;72.80;;;;;;5111872;28;20059;-84
2022/08/15 09:29:44;;;;;;;5.53;4.00;;;31.30;71.20;;;;;;5115228;28;20061;-87
2022/08/15 09:32:20;;;;;;;4.68;4.20;;;31.20;69.80;;;;;;5115101;28;20027;-85
2022/08/15 09:35:17;;;;;;;6.50;4.47;;;31.10;71.80;;;;;;5116778;28;20031;-85
2022/08/15 09:38:06;;;;;;;4.47;3.85;;;31.20;71.50;;;;;;5113002;28;20020;-85
2022/08/15 09:41:02;;;;;;;7.65;4.10;;;31.30;72.30;;;;;;5112305;28;20046;-86
2022/08/15 09:43:36;;;;;;;5.07;3.65;;;31.50;73.70;;;;;;5116976;28;20031;-84
2022/08/15 09:46:54;;;;;;;5.20;4.30;;;31.80;70.50;;;;;;5117576;28;20032;-85
2022/08/15 09:50:05;;;;;;;6.90;4.20;;;32.00;69.40;;;;;;5119648;28;20047;-85
2022/08/15 09:52:58;;;;;;;4.75;4.15;;;32.00;69.20;;;;;;5116814;28;20586;-86
2022/08/15 09:55:46;;;;;;;6.13;4.30;;;32.20;71.00;;;;;;5118921;28;20055;-87
2022/08/15 09:58:36;;;;;;;8.15;4.45;;;32.40;73.80;;;;;;5118276;28;20427;-84
2022/08/15 10:01:09;;;;;;;6.22;4.57;;;32.60;67.90;;;;;;5117765;28;20023;-86
2022/08/15 10:03:43;;;;;;;6.47;4.60;;;32.70;68.20;;;;;;5120238;28;20023;-87
2022/08/15 10:06:11;;;;;;;4.90;3.92;;;32.80;68.70;;;;;;5116624;28;20035;-87
2022/08/15 10:08:52;;;;;;;5.30;4.18;;;32.90;68.50;;;;;;5117892;28;20084;-85
2022/08/15 10:11:28;;;;;;;8.48;4.18;;;33.10;67.20;;;;;;5119457;28;20046;-84
2022/08/15 10:14:07;;;;;;;8.30;4.00;;;33.30;64.30;;;;;;5119551;28;20466;-86
2022/08/15 10:16:39;;;;;;;8.27;4.20;;;33.10;63.40;;;;;;5118496;28;20098;-85
2022/08/15 10:19:09;;;;;;;4.70;4.15;;;32.90;65.50;;;;;;5116235;28;20469;-87
2022/08/15 10:21:41;;;;;;;6.57;4.55;;;33.00;64.60;;;;;;5118415;28;20032;-86
2022/08/15 10:24:21;;;;;;;5.97;5.07;;;33.00;65.10;;;;;;5121763;28;20028;-85
2022/08/15 10:27:03;;;;;;;5.13;4.10;;;33.00;64.50;;;;;;5120705;28;20051;-85
2022/08/15 10:29:31;;;;;;;;;;;33.00;64.70;;;;;;5125184;28;20020;-83
2022/08/15 10:31:59;;;;;;;7.55;3.97;;;32.90;63.20;;;;;;5123964;28;19911;-86
2022/08/15 10:34:51;;;;;;;7.65;4.72;;;32.90;65.30;;;;;;5126024;28;20052;-82
2022/08/15 10:37:51;;;;;;;6.22;3.90;;;33.00;62.60;;;;;;5124715;28;20020;-86
2022/08/15 10:40:20;;;;;;;5.25;3.55;;;33.10;65.60;;;;;;5127275;28;20362;-85
2022/08/15 10:43:04;;;;;;;7.13;3.97;;;33.10;63.40;;;;;;5129921;28;20023;-84
2022/08/15 10:45:53;;;;;;;4.30;3.80;;;33.40;62.80;;;;;;5134969;28;20026;-86
2022/08/15 10:48:58;;;;;;;4.60;3.88;;;33.50;62.10;;;;;;5134148;28;20023;-82
2022/08/15 10:51:43;;;;;;;5.40;3.63;;;33.70;61.30;;;;;;5129160;28;20019;-84
2022/08/15 10:54:24;;;;;;;5.65;4.25;;;33.70;61.10;;;;;;5126805;28;20020;-89
2022/08/15 10:56:54;;;;;;;5.47;4.23;;;33.80;62.20;;;;;;5127545;28;20240;-86
2022/08/15 10:59:26;;;;;;;5.10;4.40;;;33.80;63.30;;;;;;5127850;28;20043;-89
2022/08/15 11:02:22;;;;;;;4.25;3.85;;;33.80;61.70;;;;;;5121205;28;20118;-85
2022/08/15 11:04:48;;;;;;;4.60;4.20;;;33.70;60.50;;;;;;5102467;28;20039;-89
2022/08/15 11:07:27;;;;;;;5.95;3.88;;;33.60;60.70;;;;;;5113995;28;20023;-86
2022/08/15 11:09:56;;;;;;;5.18;4.20;;;33.40;60.90;;;;;;5112257;28;20465;-85
2022/08/15 11:12:23;;;;;;;7.97;4.22;;;33.30;60.60;;;;;;5113504;28;20035;-86
2022/08/15 11:14:53;;;;;;;4.75;4.35;;;33.20;61.10;;;;;;5112473;28;20031;-89
2022/08/15 11:17:23;;;;;;;4.63;3.90;;;33.10;60.20;;;;;;5113259;28;20059;-90
2022/08/15 11:19:51;;;;;;;8.35;4.80;;;33.20;60.40;;;;;;5113052;28;20462;-86
2022/08/15 11:22:29;;;;;;;5.25;4.15;;;33.30;61.40;;;;;;5113160;28;20047;-86
2022/08/15 11:25:00;;;;;;;6.88;4.20;;;33.40;60.50;;;;;;5112230;28;20028;-86
2022/08/15 11:27:29;;;;;;;5.72;4.00;;;33.40;60.60;;;;;;5111456;28;20440;-86
2022/08/15 11:29:57;;;;;;;5.78;4.18;;;33.20;60.60;;;;;;5112958;28;20107;-85
2022/08/15 11:32:23;;;;;;;7.85;4.20;;;33.10;60.40;;;;;;5111671;28;20027;-86
2022/08/15 11:34:51;;;;;;;6.80;3.95;;;33.00;60.90;;;;;;5112826;28;20031;-87
2022/08/15 11:37:23;;;;;;;5.28;3.45;;;32.90;60.70;;;;;;5112691;28;20500;-86
2022/08/15 11:40:01;;;;;;;4.57;4.03;;;33.00;63.80;;;;;;5112691;28;20363;-86
2022/08/15 11:42:36;;;;;;;6.55;4.40;;;33.30;61.50;;;;;;5112521;28;20030;-87
2022/08/15 11:45:10;;;;;;;7.10;4.55;;;33.50;60.10;;;;;;5112997;28;20027;-87
2022/08/15 11:47:43;;;;;;;4.28;3.83;;;33.50;58.90;;;;;;5110652;28;20038;-86
2022/08/15 11:50:22;;;;;;;4.50;4.10;;;33.40;59.90;;;;;;5112020;28;20027;-88
2022/08/15 11:52:51;;;;;;;9.07;4.78;;;33.40;60.10;;;;;;5111720;28;20023;-90
2022/08/15 11:55:32;;;;;;;5.55;4.13;;;33.50;59.80;;;;;;5111349;28;20039;-86
2022/08/15 11:58:04;;;;;;;5.10;3.53;;;33.50;59.60;;;;;;5111566;28;20063;-85
2022/08/15 12:00:40;;;;;;;5.03;4.53;;;33.60;60.80;;;;;;5112228;28;20019;-85
2022/08/15 12:03:27;;;;;;;9.23;4.50;;;33.80;60.50;;;;;;5110330;28;20039;-87
2022/08/15 12:05:56;;;;;;;4.93;3.92;;;34.10;58.80;;;;;;5111339;28;20118;-86
2022/08/15 12:08:33;;;;;;;4.78;3.75;;;34.30;57.90;;;;;;5111873;28;20404;-85
2022/08/15 12:11:12;;;;;;;5.50;3.83;;;34.50;60.40;;;;;;5110585;28;20028;-83
2022/08/15 12:13:37;;;;;;;6.82;4.97;;;34.80;58.90;;;;;;5112155;28;20073;-84
2022/08/15 12:16:04;;;;;;;5.97;3.63;;;35.00;57.50;;;;;;5111138;28;20020;-85
2022/08/15 12:18:32;;;;;;;7.70;4.07;;;35.10;57.10;;;;;;5111525;28;20020;-84
2022/08/15 12:21:03;;;;;;;8.75;3.58;;;35.20;55.60;;;;;;5111306;28;20069;-84
2022/08/15 12:23:28;;;;;;;5.95;3.90;;;35.20;55.80;;;;;;5111497;28;20485;-86
2022/08/15 12:25:59;;;;;;;4.00;3.60;;;35.40;55.70;;;;;;5110873;28;20047;-85
2022/08/15 12:28:26;;;;;;;7.10;4.13;;;35.50;56.40;;;;;;5111484;28;20032;-87
2022/08/15 12:31:21;;;;;;;6.22;4.70;;;35.70;56.80;;;;;;5111131;28;20661;-84
2022/08/15 12:33:49;;;;;;;4.80;4.15;;;35.80;56.10;;;;;;5111178;28;20069;-85
2022/08/15 12:36:15;;;;;;;6.82;4.70;;;36.00;56.20;;;;;;5110083;28;20070;-85
2022/08/15 12:38:40;;;;;;;5.85;3.78;;;36.10;55.30;;;;;;5111404;28;20330;-87
2022/08/15 12:41:08;;;;;;;8.52;3.95;;;36.20;54.50;;;;;;5110298;28;20484;-85
2022/08/15 12:43:35;;;;;;;4.65;4.18;;;36.20;54.60;;;;;;5112046;28;20497;-86
2022/08/15 12:46:01;;;;;;;4.82;3.75;;;36.10;53.80;;;;;;5110306;28;20035;-86
2022/08/15 12:48:30;;;;;;;4.40;3.97;;;35.90;55.70;;;;;;5111347;28;20035;-85
2022/08/15 12:50:56;;;;;;;4.88;3.70;;;35.60;54.50;;;;;;5110140;28;20492;-89
2022/08/15 12:53:22;;;;;;;14.48;3.88;;;35.40;54.60;;;;;;5110662;28;20024;-86
2022/08/15 12:55:48;;;;;;;35.30;6.18;;;35.00;55.80;;;;;;5110527;28;20027;-87
2022/08/15 12:58:16;;;;;;;27.40;4.82;;;34.50;56.60;;;;;;5112467;28;20034;-88
2022/08/15 13:00:42;;;;;;;48.72;5.38;;;33.90;57.60;;;;;;5110184;28;20040;-86
2022/08/15 13:03:20;;;;;;;29.98;5.82;;;33.10;59.40;;;;;;5111214;28;20027;-86
2022/08/15 13:05:53;;;;;;;24.23;4.55;;;32.50;61.20;;;;;;5110655;28;20149;-86
2022/08/15 13:08:19;;;;;;;15.13;3.80;;;31.80;62.50;;;;;;5109932;28;20028;-89
2022/08/15 13:10:44;;;;;;;14.98;3.95;;;31.30;63.50;;;;;;5111653;28;20024;-86
2022/08/15 13:13:11;;;;;;;11.52;4.35;;;30.80;64.50;;;;;;5111539;28;20028;-86
2022/08/15 13:15:38;;;;;;;15.35;3.60;;;30.30;65.60;;;;;;5110887;28;20094;-85
2022/08/15 13:18:04;;;;;;;10.70;2.90;;;30.00;66.40;;;;;;5113460;28;20035;-86